createdAt,value
2022-07-25T00:01:36.684Z,22.86
2022-07-25T00:04:32.306Z,22.82
2022-07-25T00:07:19.470Z,22.73
2022-07-25T00:10:14.241Z,22.75
2022-07-25T00:13:01.333Z,22.83
2022-07-25T00:15:55.303Z,22.82
2022-07-25T00:18:42.425Z,22.74
2022-07-25T00:21:36.245Z,22.65
2022-07-25T00:24:30.239Z,22.64
2022-07-25T00:27:24.417Z,22.60
2022-07-25T00:30:18.292Z,22.61
2022-07-25T00:33:05.338Z,22.55
2022-07-25T00:35:59.394Z,22.50
2022-07-25T00:38:53.267Z,22.41
2022-07-25T00:41:46.363Z,22.38
2022-07-25T00:44:40.231Z,22.35
2022-07-25T00:47:33.451Z,22.35
2022-07-25T00:50:20.658Z,22.38
2022-07-25T00:53:14.237Z,22.35
2022-07-25T00:56:01.896Z,22.29
2022-07-25T00:58:55.602Z,22.26
2022-07-25T01:01:49.273Z,22.24
2022-07-25T01:04:43.417Z,22.27
2022-07-25T01:07:37.239Z,22.28
2022-07-25T01:10:31.226Z,22.31
2022-07-25T01:13:18.216Z,22.29
2022-07-25T01:16:15.342Z,22.26
2022-07-25T01:19:09.241Z,22.24
2022-07-25T01:21:57.411Z,22.22
2022-07-25T01:24:51.263Z,22.21
2022-07-25T01:27:38.910Z,22.16
2022-07-25T01:30:33.272Z,22.11
2022-07-25T01:33:28.226Z,22.09
2022-07-25T01:36:22.220Z,22.08
2022-07-25T01:39:29.443Z,22.08
2022-07-25T01:42:23.205Z,22.07
2022-07-25T01:45:11.128Z,22.09
2022-07-25T01:48:04.224Z,22.09
2022-07-25T01:50:58.252Z,22.06
2022-07-25T01:53:46.865Z,22.00
2022-07-25T01:56:41.376Z,21.97
2022-07-25T01:59:28.469Z,21.95
2022-07-25T02:02:22.408Z,21.97
2022-07-25T02:05:11.860Z,21.96
2022-07-25T02:08:05.223Z,21.90
2022-07-25T02:10:59.421Z,21.90
2022-07-25T02:13:53.223Z,21.89
2022-07-25T02:16:40.231Z,21.86
2022-07-25T02:19:34.604Z,21.86
2022-07-25T02:22:21.606Z,21.87
2022-07-25T02:25:17.298Z,21.86
2022-07-25T02:28:11.611Z,21.83
2022-07-25T02:30:58.619Z,21.82
2022-07-25T02:33:52.209Z,21.78
2022-07-25T02:36:46.255Z,21.78
2022-07-25T02:39:53.224Z,21.73
2022-07-25T02:42:47.395Z,21.68
2022-07-25T02:45:35.114Z,21.63
2022-07-25T02:48:29.274Z,21.65
2022-07-25T02:51:16.319Z,21.60
2022-07-25T02:54:10.470Z,21.58
2022-07-25T02:57:04.203Z,21.53
2022-07-25T02:59:51.237Z,21.49
2022-07-25T03:02:44.226Z,21.44
2022-07-25T03:05:38.204Z,21.42
2022-07-25T03:08:32.378Z,21.43
2022-07-25T03:11:19.471Z,21.36
2022-07-25T03:14:15.209Z,21.41
2022-07-25T03:17:02.263Z,21.36
2022-07-25T03:19:56.209Z,21.37
2022-07-25T03:22:43.239Z,21.36
2022-07-25T03:25:36.206Z,21.30
2022-07-25T03:28:24.846Z,21.46
2022-07-25T03:31:18.293Z,21.47
2022-07-25T03:34:06.084Z,21.42
2022-07-25T03:37:00.381Z,21.37
2022-07-25T03:40:07.187Z,21.31
2022-07-25T03:43:00.229Z,21.25
2022-07-25T03:45:47.292Z,21.22
2022-07-25T03:48:41.425Z,21.21
2022-07-25T03:51:28.565Z,21.21
2022-07-25T03:54:22.282Z,21.22
2022-07-25T03:57:19.215Z,21.19
2022-07-25T04:00:15.355Z,21.22
2022-07-25T04:03:02.370Z,21.18
2022-07-25T04:05:56.206Z,21.15
2022-07-25T04:08:49.230Z,21.17
2022-07-25T04:11:38.254Z,21.18
2022-07-25T04:14:32.198Z,21.16
2022-07-25T04:17:19.243Z,21.16
2022-07-25T04:20:15.204Z,21.18
2022-07-25T04:23:10.366Z,21.21
2022-07-25T04:25:58.087Z,21.22
2022-07-25T04:28:51.359Z,21.33
2022-07-25T04:31:38.393Z,21.41
2022-07-25T04:34:32.244Z,21.38
2022-07-25T04:37:19.472Z,21.44
2022-07-25T04:40:19.210Z,21.41
2022-07-25T04:43:13.312Z,21.45
2022-07-25T04:46:08.285Z,21.50
2022-07-25T04:49:02.241Z,21.54
2022-07-25T04:51:49.316Z,21.47
2022-07-25T04:54:42.207Z,21.46
2022-07-25T04:57:36.189Z,21.56
2022-07-25T05:00:30.370Z,21.59
2022-07-25T05:03:17.398Z,21.63
2022-07-25T05:06:11.302Z,21.65
2022-07-25T05:09:07.284Z,21.69
2022-07-25T05:12:01.216Z,21.67
2022-07-25T05:14:48.206Z,21.67
2022-07-25T05:17:42.577Z,21.65
2022-07-25T05:20:30.088Z,21.75
2022-07-25T05:23:23.353Z,21.78
2022-07-25T05:26:10.350Z,21.75
2022-07-25T05:29:04.190Z,21.67
2022-07-25T05:31:57.225Z,21.61
2022-07-25T05:34:44.231Z,21.59
2022-07-25T05:37:38.169Z,21.64
2022-07-25T05:40:32.222Z,21.65
2022-07-25T05:43:26.160Z,21.71
2022-07-25T05:46:13.747Z,21.74
2022-07-25T05:49:07.282Z,21.75
2022-07-25T05:52:01.208Z,21.86
2022-07-25T05:54:55.185Z,21.87
2022-07-25T05:57:49.224Z,21.80
2022-07-25T06:00:36.519Z,21.86
2022-07-25T06:03:30.661Z,21.97
2022-07-25T06:06:24.199Z,22.04
2022-07-25T06:09:18.179Z,22.10
2022-07-25T06:12:05.892Z,22.17
2022-07-25T06:15:00.196Z,22.20
2022-07-25T06:17:54.310Z,22.29
2022-07-25T06:20:41.356Z,22.26
2022-07-25T06:23:35.358Z,22.29
2022-07-25T06:26:29.200Z,22.39
2022-07-25T06:29:16.534Z,22.45
2022-07-25T06:32:10.357Z,22.49
2022-07-25T06:35:04.188Z,22.60
2022-07-25T06:37:58.177Z,22.62
2022-07-25T06:41:05.183Z,22.68
2022-07-25T06:43:59.219Z,22.82
2022-07-25T06:46:46.527Z,22.83
2022-07-25T06:49:40.166Z,22.84
2022-07-25T06:52:34.174Z,22.87
2022-07-25T06:55:21.268Z,22.94
2022-07-25T06:58:15.205Z,22.98
2022-07-25T07:01:02.308Z,23.00
2022-07-25T07:03:56.190Z,23.08
2022-07-25T07:06:43.902Z,23.18
2022-07-25T07:09:37.183Z,23.23
2022-07-25T07:12:24.922Z,23.33
2022-07-25T07:15:19.154Z,23.39
2022-07-25T07:18:07.154Z,23.42
2022-07-25T07:21:01.175Z,23.54
2022-07-25T07:23:55.211Z,23.56
2022-07-25T07:26:50.193Z,23.64
2022-07-25T07:29:37.164Z,23.73
2022-07-25T07:32:31.255Z,23.86
2022-07-25T07:35:27.451Z,23.92
2022-07-25T07:38:15.200Z,23.94
2022-07-25T07:41:09.194Z,24.00
2022-07-25T07:44:03.178Z,24.07
2022-07-25T07:46:50.410Z,24.12
2022-07-25T07:49:49.805Z,24.20
2022-07-25T07:52:37.601Z,24.32
2022-07-25T07:55:50.197Z,24.38
2022-07-25T07:58:37.175Z,24.46
2022-07-25T08:01:31.245Z,24.52
2022-07-25T08:04:25.166Z,24.59
2022-07-25T08:07:12.132Z,24.64
2022-07-25T08:10:06.186Z,24.70
2022-07-25T08:12:53.681Z,24.78
2022-07-25T08:15:48.288Z,24.85
2022-07-25T08:18:35.530Z,24.90
2022-07-25T08:21:29.194Z,24.94
2022-07-25T08:24:16.151Z,25.01
2022-07-25T08:27:10.212Z,25.10
2022-07-25T08:29:58.766Z,25.18
2022-07-25T08:32:58.150Z,25.23
2022-07-25T08:35:54.338Z,25.32
2022-07-25T08:38:41.339Z,25.42
2022-07-25T08:41:41.323Z,25.48
2022-07-25T08:44:47.181Z,25.55
2022-07-25T08:47:42.188Z,25.62
2022-07-25T08:50:37.171Z,25.71
2022-07-25T08:53:34.149Z,25.81
2022-07-25T08:56:28.175Z,25.86
2022-07-25T08:59:15.244Z,25.92
2022-07-25T09:02:13.252Z,26.02
2022-07-25T09:05:07.219Z,26.14
2022-07-25T09:07:55.903Z,26.22
2022-07-25T09:10:55.197Z,26.26
2022-07-25T09:13:49.215Z,26.38
2022-07-25T09:16:40.441Z,26.45
2022-07-25T09:19:34.177Z,26.50
2022-07-25T09:22:28.166Z,26.60
2022-07-25T09:25:34.151Z,26.70
2022-07-25T09:28:27.217Z,26.79
2022-07-25T09:31:22.231Z,26.85
2022-07-25T09:34:17.173Z,26.90
2022-07-25T09:37:07.903Z,27.08
2022-07-25T09:40:01.166Z,27.17
2022-07-25T09:42:51.237Z,27.18
2022-07-25T09:45:55.376Z,27.26
2022-07-25T09:48:51.434Z,27.41
2022-07-25T09:51:39.347Z,27.51
2022-07-25T09:54:33.303Z,27.57
2022-07-25T09:57:21.904Z,27.59
2022-07-25T10:00:19.489Z,27.63
2022-07-25T10:03:33.354Z,27.72
2022-07-25T10:06:53.335Z,27.87
2022-07-25T10:09:49.005Z,27.94
2022-07-25T10:12:45.177Z,28.13
2022-07-25T10:15:50.608Z,28.17
2022-07-25T10:19:01.200Z,28.36
2022-07-25T10:22:02.163Z,28.43
2022-07-25T10:24:49.836Z,28.47
2022-07-25T10:27:50.208Z,28.64
2022-07-25T10:30:40.094Z,28.81
2022-07-25T10:33:34.164Z,28.88
2022-07-25T10:36:29.173Z,28.87
2022-07-25T10:39:26.248Z,28.90
2022-07-25T10:42:29.141Z,28.83
2022-07-25T10:45:18.006Z,28.87
2022-07-25T10:48:26.358Z,29.01
2022-07-25T10:51:14.461Z,29.20
2022-07-25T10:54:22.146Z,29.27
2022-07-25T10:57:22.160Z,29.62
2022-07-25T11:00:09.686Z,29.78
2022-07-25T11:03:04.220Z,29.83
2022-07-25T11:05:54.638Z,29.87
2022-07-25T11:08:51.147Z,29.89
2022-07-25T11:11:41.034Z,30.05
2022-07-25T11:14:44.307Z,30.01
2022-07-25T11:17:31.451Z,30.13
2022-07-25T11:20:26.183Z,30.24
2022-07-25T11:23:29.169Z,30.20
2022-07-25T11:26:23.156Z,30.12
2022-07-25T11:29:21.798Z,30.43
2022-07-25T11:32:17.245Z,30.34
2022-07-25T11:35:05.565Z,30.39
2022-07-25T11:38:00.148Z,30.54
2022-07-25T11:40:53.302Z,30.46
2022-07-25T11:43:56.176Z,30.68
2022-07-25T11:46:47.217Z,30.79
2022-07-25T11:49:52.183Z,30.84
2022-07-25T11:52:39.228Z,30.76
2022-07-25T11:55:37.157Z,30.62
2022-07-25T11:58:31.191Z,30.71
2022-07-25T12:01:18.208Z,30.82
2022-07-25T12:04:21.160Z,30.82
2022-07-25T12:07:08.143Z,30.96
2022-07-25T12:10:04.218Z,31.05
2022-07-25T12:12:54.810Z,31.08
2022-07-25T12:15:49.200Z,31.12
2022-07-25T12:18:38.197Z,31.09
2022-07-25T12:21:32.199Z,31.13
2022-07-25T12:24:19.378Z,31.22
2022-07-25T12:27:13.389Z,31.29
2022-07-25T12:30:00.352Z,31.40
2022-07-25T12:32:54.245Z,31.52
2022-07-25T12:35:42.623Z,31.71
2022-07-25T12:38:36.210Z,32.09
2022-07-25T12:41:36.166Z,32.27
2022-07-25T12:44:23.149Z,32.65
2022-07-25T12:47:17.353Z,32.60
2022-07-25T12:50:06.188Z,32.81
2022-07-25T12:53:00.145Z,33.06
2022-07-25T12:55:47.126Z,33.12
2022-07-25T12:58:41.163Z,33.47
2022-07-25T13:01:28.183Z,33.78
2022-07-25T13:04:22.312Z,33.98
2022-07-25T13:07:09.324Z,34.57
2022-07-25T13:10:03.204Z,34.58
2022-07-25T13:12:50.316Z,34.78
2022-07-25T13:15:44.145Z,34.86
2022-07-25T13:18:38.159Z,35.17
2022-07-25T13:21:25.979Z,35.15
2022-07-25T13:24:20.137Z,35.57
2022-07-25T13:27:14.550Z,35.48
2022-07-25T13:30:01.718Z,35.38
2022-07-25T13:32:55.158Z,35.39
2022-07-25T13:35:42.240Z,35.29
2022-07-25T13:38:36.169Z,35.10
2022-07-25T13:41:43.168Z,34.94
2022-07-25T13:44:36.138Z,34.74
2022-07-25T13:47:26.963Z,34.65
2022-07-25T13:50:24.283Z,34.37
2022-07-25T13:53:11.395Z,34.51
2022-07-25T13:56:06.232Z,34.46
2022-07-25T13:58:53.312Z,34.18
2022-07-25T14:01:47.198Z,34.03
2022-07-25T14:04:34.232Z,34.18
2022-07-25T14:07:28.168Z,34.15
2022-07-25T14:10:15.503Z,34.09
2022-07-25T14:13:09.231Z,34.10
2022-07-25T14:15:56.457Z,34.06
2022-07-25T14:18:50.305Z,34.04
2022-07-25T14:21:38.043Z,33.86
2022-07-25T14:24:31.143Z,33.76
2022-07-25T14:27:25.264Z,33.72
2022-07-25T14:30:19.204Z,33.72
2022-07-25T14:33:06.263Z,33.74
2022-07-25T14:36:00.155Z,33.60
2022-07-25T14:38:55.196Z,33.68
2022-07-25T14:41:48.740Z,33.67
2022-07-25T14:44:42.160Z,33.76
2022-07-25T14:47:29.405Z,33.75
2022-07-25T14:50:23.143Z,33.64
2022-07-25T14:53:10.879Z,33.59
2022-07-25T14:56:05.174Z,33.59
2022-07-25T14:58:52.331Z,33.60
2022-07-25T15:01:46.188Z,33.66
2022-07-25T15:04:33.450Z,33.59
2022-07-25T15:07:27.149Z,33.49
2022-07-25T15:10:14.713Z,33.44
2022-07-25T15:13:30.075Z,33.47
2022-07-25T15:16:17.035Z,33.60
2022-07-25T15:19:17.211Z,33.65
2022-07-25T15:22:11.156Z,33.68
2022-07-25T15:28:19.158Z,33.53
2022-07-25T15:31:13.218Z,33.45
2022-07-25T15:34:07.285Z,33.40
2022-07-25T15:36:54.556Z,33.43
2022-07-25T15:39:48.158Z,33.40
2022-07-25T15:42:49.173Z,33.43
2022-07-25T15:45:48.188Z,33.49
2022-07-25T15:48:35.186Z,33.44
2022-07-25T15:51:29.157Z,33.48
2022-07-25T15:54:16.362Z,33.63
2022-07-25T15:57:10.188Z,33.87
2022-07-25T15:59:57.255Z,33.99
2022-07-25T16:02:52.160Z,34.07
2022-07-25T16:05:47.167Z,34.19
2022-07-25T16:08:42.178Z,34.09
2022-07-25T16:11:36.183Z,34.09
2022-07-25T16:14:23.169Z,34.29
2022-07-25T16:17:17.191Z,34.22
2022-07-25T16:20:13.202Z,34.20
2022-07-25T16:23:07.191Z,34.49
2022-07-25T16:26:01.165Z,34.53
2022-07-25T16:28:57.749Z,34.69
2022-07-25T16:31:45.056Z,34.75
2022-07-25T16:34:39.145Z,34.75
2022-07-25T16:37:33.209Z,34.78
2022-07-25T16:40:30.711Z,34.66
2022-07-25T16:43:24.858Z,34.67
2022-07-25T16:46:18.211Z,34.88
2022-07-25T16:49:12.481Z,34.80
2022-07-25T16:51:59.742Z,34.82
2022-07-25T16:54:53.162Z,34.64
2022-07-25T16:57:40.343Z,34.47
2022-07-25T17:00:34.156Z,34.41
2022-07-25T17:03:28.148Z,34.33
2022-07-25T17:06:23.921Z,34.24
2022-07-25T17:09:18.159Z,34.07
2022-07-25T17:12:12.150Z,34.02
2022-07-25T17:15:05.169Z,33.98
2022-07-25T17:17:52.237Z,33.86
2022-07-25T17:20:46.203Z,34.18
2022-07-25T17:23:33.867Z,34.03
2022-07-25T17:26:27.399Z,34.00
2022-07-25T17:29:21.167Z,33.85
2022-07-25T17:32:15.154Z,33.86
2022-07-25T17:35:02.157Z,33.74
2022-07-25T17:37:56.152Z,33.70
2022-07-25T17:40:50.218Z,33.59
2022-07-25T17:43:44.354Z,33.40
2022-07-25T17:46:39.268Z,33.36
2022-07-25T17:49:33.323Z,33.09
2022-07-25T17:52:20.299Z,32.85
2022-07-25T17:55:14.230Z,32.61
2022-07-25T17:58:02.044Z,32.37
2022-07-25T18:01:00.965Z,32.16
2022-07-25T18:03:57.134Z,31.97
2022-07-25T18:06:44.860Z,31.77
2022-07-25T18:09:38.155Z,31.60
2022-07-25T18:12:29.463Z,31.44
2022-07-25T18:15:24.144Z,31.30
2022-07-25T18:18:12.836Z,31.13
2022-07-25T18:21:09.160Z,30.99
2022-07-25T18:24:03.228Z,30.89
2022-07-25T18:26:50.273Z,30.79
2022-07-25T18:29:45.217Z,30.68
2022-07-25T18:32:32.591Z,30.56
2022-07-25T18:35:26.164Z,30.45
2022-07-25T18:38:13.783Z,30.35
2022-07-25T18:41:27.970Z,30.24
2022-07-25T18:44:27.161Z,30.15
2022-07-25T18:47:21.156Z,30.05
2022-07-25T18:50:08.923Z,29.97
2022-07-25T18:53:04.158Z,29.89
2022-07-25T18:55:51.278Z,29.81
2022-07-25T18:58:45.201Z,29.73
2022-07-25T19:01:32.269Z,29.64
2022-07-25T19:04:26.151Z,29.55
2022-07-25T19:07:13.269Z,29.47
2022-07-25T19:10:07.144Z,29.39
2022-07-25T19:12:54.128Z,29.31
2022-07-25T19:15:48.233Z,29.24
2022-07-25T19:18:44.176Z,29.15
2022-07-25T19:21:31.215Z,29.07
2022-07-25T19:24:25.142Z,28.99
2022-07-25T19:27:12.489Z,28.92
2022-07-25T19:30:06.125Z,28.86
2022-07-25T19:32:53.203Z,28.82
2022-07-25T19:35:47.144Z,28.79
2022-07-25T19:38:34.255Z,28.75
2022-07-25T19:41:28.154Z,28.70
2022-07-25T19:44:21.289Z,28.64
2022-07-25T19:47:15.178Z,28.60
2022-07-25T19:50:02.212Z,28.55
2022-07-25T19:52:56.144Z,28.50
2022-07-25T19:55:43.322Z,28.46
2022-07-25T19:58:39.128Z,28.42
2022-07-25T20:01:34.265Z,28.39
2022-07-25T20:04:28.295Z,28.33
2022-07-25T20:07:22.445Z,28.29
2022-07-25T20:10:17.983Z,28.27
2022-07-25T20:13:12.168Z,28.22
2022-07-25T20:15:59.349Z,28.18
2022-07-25T20:18:53.252Z,28.15
2022-07-25T20:21:40.890Z,28.11
2022-07-25T20:24:34.188Z,28.09
2022-07-25T20:27:28.160Z,28.06
2022-07-25T20:30:15.773Z,28.03
2022-07-25T20:33:09.922Z,27.99
2022-07-25T20:36:04.166Z,27.96
2022-07-25T20:38:58.155Z,27.91
2022-07-25T20:41:59.138Z,27.87
2022-07-25T20:44:52.298Z,27.82
2022-07-25T20:47:46.196Z,27.78
2022-07-25T20:50:40.153Z,27.75
2022-07-25T20:53:27.364Z,27.69
2022-07-25T20:56:21.210Z,27.66
2022-07-25T20:59:08.831Z,27.64
2022-07-25T21:02:02.221Z,27.61
2022-07-25T21:04:56.211Z,27.58
2022-07-25T21:07:50.150Z,27.56
2022-07-25T21:10:45.138Z,27.53
2022-07-25T21:13:39.179Z,27.51
2022-07-25T21:16:27.355Z,27.50
2022-07-25T21:19:35.172Z,27.46
2022-07-25T21:22:29.328Z,27.44
2022-07-25T21:25:23.161Z,27.42
2022-07-25T21:28:10.222Z,27.41
2022-07-25T21:31:04.148Z,27.38
2022-07-25T21:33:58.131Z,27.38
2022-07-25T21:36:45.121Z,27.37
2022-07-25T21:39:39.137Z,27.35
2022-07-25T21:42:33.263Z,27.34
2022-07-25T21:45:33.144Z,27.31
2022-07-25T21:48:40.471Z,27.27
2022-07-25T21:51:40.917Z,27.27
2022-07-25T21:54:28.289Z,27.27
2022-07-25T21:57:23.203Z,27.25
2022-07-25T22:00:19.136Z,27.23
2022-07-25T22:03:13.143Z,27.24
2022-07-25T22:06:07.318Z,27.22
2022-07-25T22:09:01.158Z,27.21
2022-07-25T22:11:48.241Z,27.26
2022-07-25T22:14:42.322Z,27.21
2022-07-25T22:17:48.197Z,26.94
2022-07-25T22:20:43.142Z,26.84
2022-07-25T22:23:37.201Z,26.82
2022-07-25T22:26:24.635Z,26.85
2022-07-25T22:29:18.332Z,26.84
2022-07-25T22:32:05.819Z,26.76
2022-07-25T22:34:59.163Z,26.89
2022-07-25T22:37:46.364Z,27.06
2022-07-25T22:40:40.143Z,26.96
2022-07-25T22:43:59.024Z,27.03
2022-07-25T22:46:46.721Z,27.05
2022-07-25T22:49:40.125Z,27.07
2022-07-25T22:52:33.110Z,27.12
2022-07-25T22:55:20.382Z,27.06
2022-07-25T22:58:14.125Z,26.97
2022-07-25T23:01:08.137Z,26.65
2022-07-25T23:03:56.394Z,26.46
2022-07-25T23:06:50.146Z,26.61
2022-07-25T23:09:37.120Z,26.31
2022-07-25T23:12:30.117Z,24.34
2022-07-25T23:15:17.166Z,22.05
2022-07-25T23:18:11.117Z,21.50
2022-07-25T23:20:58.243Z,21.00
2022-07-25T23:23:52.124Z,21.02
2022-07-25T23:26:39.265Z,20.65
2022-07-25T23:29:33.134Z,20.72
2022-07-25T23:32:20.178Z,20.61
2022-07-25T23:35:14.130Z,20.49
2022-07-25T23:38:08.141Z,20.44
2022-07-25T23:41:02.119Z,20.23
2022-07-25T23:43:59.352Z,20.12
2022-07-25T23:46:53.178Z,19.84
2022-07-25T23:49:40.779Z,19.60
2022-07-25T23:52:34.139Z,19.44
2022-07-25T23:55:28.134Z,19.50
2022-07-25T23:58:22.147Z,19.46
